createdAt,value
2022-08-26T00:00:53.112Z,0.00
2022-08-26T00:01:53.146Z,0.00
2022-08-26T00:02:53.049Z,0.00
2022-08-26T00:03:53.054Z,0.00
2022-08-26T00:04:53.044Z,0.00
2022-08-26T00:05:53.001Z,0.00
2022-08-26T00:06:52.993Z,0.00
2022-08-26T00:07:52.969Z,0.00
2022-08-26T00:08:52.949Z,0.00
2022-08-26T00:09:54.451Z,0.00
2022-08-26T00:10:52.925Z,0.00
2022-08-26T00:11:52.899Z,0.00
2022-08-26T00:12:52.878Z,0.00
2022-08-26T00:13:52.881Z,0.00
2022-08-26T00:14:52.846Z,0.00
2022-08-26T00:15:52.835Z,0.00
2022-08-26T00:16:52.853Z,0.00
2022-08-26T00:17:52.793Z,0.00
2022-08-26T00:18:52.776Z,0.00
2022-08-26T00:19:52.763Z,0.00
2022-08-26T00:20:52.745Z,0.00
2022-08-26T00:21:52.720Z,0.00
2022-08-26T00:22:52.710Z,0.00
2022-08-26T00:23:52.692Z,0.00
2022-08-26T00:24:52.671Z,0.00
2022-08-26T00:25:52.651Z,0.00
2022-08-26T00:26:52.636Z,0.00
2022-08-26T00:27:52.634Z,0.00
2022-08-26T00:28:52.601Z,0.00
2022-08-26T00:29:52.580Z,0.00
2022-08-26T00:30:52.568Z,0.00
2022-08-26T00:31:52.578Z,0.00
2022-08-26T00:32:52.550Z,0.00
2022-08-26T00:33:52.513Z,0.00
2022-08-26T00:34:52.495Z,0.00
2022-08-26T00:35:52.479Z,0.00
2022-08-26T00:36:52.468Z,0.00
2022-08-26T00:37:52.506Z,0.00
2022-08-26T00:38:52.427Z,0.00
2022-08-26T00:39:52.433Z,0.00
2022-08-26T00:40:52.393Z,0.00
2022-08-26T00:41:52.370Z,0.00
2022-08-26T00:42:52.358Z,0.00
2022-08-26T00:43:52.343Z,0.00
2022-08-26T00:44:52.316Z,0.00
2022-08-26T00:45:52.362Z,0.00
2022-08-26T00:46:52.283Z,0.00
2022-08-26T00:47:52.264Z,0.00
2022-08-26T00:48:52.249Z,0.00
2022-08-26T00:49:52.236Z,0.00
2022-08-26T00:50:52.215Z,0.00
2022-08-26T00:51:52.196Z,0.00
2022-08-26T00:52:52.178Z,0.00
2022-08-26T00:53:52.161Z,0.00
2022-08-26T00:54:52.146Z,0.00
2022-08-26T00:55:52.123Z,0.00
2022-08-26T00:56:52.111Z,0.00
2022-08-26T00:57:52.102Z,0.00
2022-08-26T00:58:52.072Z,0.00
2022-08-26T00:59:52.054Z,0.00
2022-08-26T01:00:52.086Z,0.00
2022-08-26T01:01:52.068Z,0.00
2022-08-26T01:02:52.001Z,0.00
2022-08-26T01:03:51.984Z,0.00
2022-08-26T01:04:54.405Z,0.00
2022-08-26T01:05:51.950Z,0.00
2022-08-26T01:06:51.929Z,0.00
2022-08-26T01:07:51.929Z,0.00
2022-08-26T01:08:51.895Z,0.00
2022-08-26T01:09:51.876Z,0.00
2022-08-26T01:10:51.866Z,0.00
2022-08-26T01:11:51.837Z,0.00
2022-08-26T01:12:51.822Z,0.00
2022-08-26T01:13:51.802Z,0.00
2022-08-26T01:14:51.785Z,0.00
2022-08-26T01:15:51.765Z,0.00
2022-08-26T01:16:51.748Z,0.00
2022-08-26T01:17:51.736Z,0.00
2022-08-26T01:18:51.711Z,0.00
2022-08-26T01:19:51.698Z,0.00
2022-08-26T01:20:51.673Z,0.00
2022-08-26T01:21:51.661Z,0.00
2022-08-26T01:22:52.267Z,0.00
2022-08-26T01:23:51.627Z,0.00
2022-08-26T01:24:51.612Z,0.00
2022-08-26T01:25:51.588Z,0.00
2022-08-26T01:26:51.586Z,0.00
2022-08-26T01:27:51.556Z,0.00
2022-08-26T01:28:51.664Z,0.00
2022-08-26T01:29:51.521Z,0.00
2022-08-26T01:30:51.496Z,0.00
2022-08-26T01:31:51.598Z,0.00
2022-08-26T01:32:51.468Z,0.00
2022-08-26T01:33:51.444Z,0.00
2022-08-26T01:34:51.435Z,0.00
2022-08-26T01:35:51.410Z,0.00
2022-08-26T01:36:51.796Z,0.00
2022-08-26T01:37:51.378Z,0.00
2022-08-26T01:38:51.357Z,0.00
2022-08-26T01:39:51.367Z,0.00
2022-08-26T01:40:51.324Z,0.00
2022-08-26T01:41:53.537Z,0.00
2022-08-26T01:42:51.283Z,0.00
2022-08-26T01:43:51.280Z,0.00
2022-08-26T01:44:51.249Z,0.00
2022-08-26T01:45:51.310Z,0.00
2022-08-26T01:46:51.213Z,0.00
2022-08-26T01:47:57.048Z,0.00
2022-08-26T01:48:52.388Z,0.00
2022-08-26T01:49:51.159Z,0.00
2022-08-26T01:50:51.141Z,0.00
2022-08-26T01:51:51.145Z,0.00
2022-08-26T01:52:54.226Z,0.00
2022-08-26T01:53:51.139Z,0.00
2022-08-26T01:54:51.073Z,0.00
2022-08-26T01:55:51.057Z,0.00
2022-08-26T01:56:51.033Z,0.00
2022-08-26T01:57:51.019Z,0.00
2022-08-26T01:58:51.006Z,0.00
2022-08-26T01:59:50.988Z,0.00
2022-08-26T02:00:51.031Z,0.00
2022-08-26T02:01:51.030Z,0.00
2022-08-26T02:02:50.966Z,0.00
2022-08-26T02:03:50.935Z,0.00
2022-08-26T02:04:50.971Z,0.00
2022-08-26T02:05:51.474Z,0.00
2022-08-26T02:06:50.861Z,0.00
2022-08-26T02:07:50.861Z,0.00
2022-08-26T02:08:50.833Z,0.00
2022-08-26T02:09:50.806Z,0.00
2022-08-26T02:10:50.801Z,0.00
2022-08-26T02:11:51.105Z,0.00
2022-08-26T02:12:50.758Z,0.00
2022-08-26T02:13:50.740Z,0.00
2022-08-26T02:14:51.240Z,0.00
2022-08-26T02:15:50.698Z,0.00
2022-08-26T02:16:50.683Z,0.00
2022-08-26T02:17:52.674Z,0.00
2022-08-26T02:18:50.647Z,0.00
2022-08-26T02:19:50.638Z,0.00
2022-08-26T02:20:51.630Z,0.00
2022-08-26T02:21:51.197Z,0.00
2022-08-26T02:22:50.579Z,0.00
2022-08-26T02:23:50.555Z,0.00
2022-08-26T02:24:50.541Z,0.00
2022-08-26T02:25:50.527Z,0.00
2022-08-26T02:26:50.504Z,0.00
2022-08-26T02:27:50.489Z,0.00
2022-08-26T02:28:50.466Z,0.00
2022-08-26T02:29:50.451Z,0.00
2022-08-26T02:30:50.434Z,0.00
2022-08-26T02:31:50.481Z,0.00
2022-08-26T02:32:50.395Z,0.00
2022-08-26T02:33:50.380Z,0.00
2022-08-26T02:34:50.363Z,0.00
2022-08-26T02:35:50.346Z,0.00
2022-08-26T02:36:50.879Z,0.00
2022-08-26T02:37:50.309Z,0.00
2022-08-26T02:38:50.297Z,0.00
2022-08-26T02:39:50.333Z,0.00
2022-08-26T02:40:50.265Z,0.00
2022-08-26T02:41:50.240Z,0.00
2022-08-26T02:42:50.220Z,0.00
2022-08-26T02:43:50.202Z,0.00
2022-08-26T02:44:50.194Z,0.00
2022-08-26T02:45:50.168Z,0.00
2022-08-26T02:46:50.162Z,0.00
2022-08-26T02:47:50.128Z,0.00
2022-08-26T02:48:50.113Z,0.00
2022-08-26T02:49:50.094Z,0.00
2022-08-26T02:50:50.075Z,0.00
2022-08-26T02:51:50.062Z,0.00
2022-08-26T02:52:50.045Z,0.00
2022-08-26T02:53:50.026Z,0.00
2022-08-26T02:54:50.018Z,0.00
2022-08-26T02:55:50.056Z,0.00
2022-08-26T02:56:49.972Z,0.00
2022-08-26T02:57:49.952Z,0.00
2022-08-26T02:58:49.933Z,0.00
2022-08-26T02:59:49.916Z,0.00
2022-08-26T03:00:53.274Z,0.00
2022-08-26T03:01:49.914Z,0.00
2022-08-26T03:02:49.876Z,0.00
2022-08-26T03:03:49.849Z,0.00
2022-08-26T03:04:57.910Z,0.00
2022-08-26T03:05:49.811Z,0.00
2022-08-26T03:06:52.713Z,0.00
2022-08-26T03:07:49.773Z,0.00
2022-08-26T03:08:49.755Z,0.00
2022-08-26T03:09:49.741Z,0.00
2022-08-26T03:10:49.718Z,0.00
2022-08-26T03:11:49.701Z,0.00
2022-08-26T03:12:49.696Z,0.00
2022-08-26T03:13:49.683Z,0.00
2022-08-26T03:14:49.651Z,0.00
2022-08-26T03:15:49.667Z,0.00
2022-08-26T03:16:49.621Z,0.00
2022-08-26T03:17:50.301Z,0.00
2022-08-26T03:18:52.454Z,0.00
2022-08-26T03:19:54.282Z,0.00
2022-08-26T03:20:49.564Z,0.00
2022-08-26T03:21:49.533Z,0.00
2022-08-26T03:22:50.498Z,0.00
2022-08-26T03:23:49.496Z,0.00
2022-08-26T03:24:49.474Z,0.00
2022-08-26T03:25:49.473Z,0.00
2022-08-26T03:26:52.047Z,0.00
2022-08-26T03:27:49.421Z,0.00
2022-08-26T03:28:49.408Z,0.00
2022-08-26T03:29:49.522Z,0.00
2022-08-26T03:30:49.368Z,0.00
2022-08-26T03:31:49.366Z,0.00
2022-08-26T03:32:49.336Z,0.00
2022-08-26T03:33:49.316Z,0.00
2022-08-26T03:34:49.362Z,0.00
2022-08-26T03:35:50.489Z,0.00
2022-08-26T03:36:49.264Z,0.00
2022-08-26T03:37:49.284Z,0.00
2022-08-26T03:38:49.228Z,0.00
2022-08-26T03:39:49.294Z,0.00
2022-08-26T03:40:49.197Z,0.00
2022-08-26T03:41:49.178Z,0.00
2022-08-26T03:42:49.158Z,0.00
2022-08-26T03:43:49.143Z,0.00
2022-08-26T03:44:49.130Z,0.00
2022-08-26T03:45:49.115Z,0.00
2022-08-26T03:46:49.145Z,0.00
2022-08-26T03:47:49.090Z,0.00
2022-08-26T03:48:49.388Z,0.00
2022-08-26T03:49:49.039Z,0.00
2022-08-26T03:50:49.016Z,0.00
2022-08-26T03:51:49.005Z,0.00
2022-08-26T03:52:48.982Z,0.00
2022-08-26T03:53:48.977Z,0.00
2022-08-26T03:54:48.947Z,0.00
2022-08-26T03:55:48.936Z,0.00
2022-08-26T03:56:48.912Z,0.00
2022-08-26T03:57:48.896Z,0.00
2022-08-26T03:58:48.880Z,0.00
2022-08-26T03:59:48.865Z,0.00
2022-08-26T04:00:48.849Z,0.00
2022-08-26T04:01:49.042Z,0.00
2022-08-26T04:02:49.001Z,0.00
2022-08-26T04:03:48.792Z,0.00
2022-08-26T04:04:48.776Z,0.00
2022-08-26T04:05:48.760Z,0.00
2022-08-26T04:06:48.745Z,0.00
2022-08-26T04:07:48.894Z,0.00
2022-08-26T04:08:48.707Z,0.00
2022-08-26T04:09:48.685Z,0.00
2022-08-26T04:10:48.667Z,0.00
2022-08-26T04:11:50.722Z,0.00
2022-08-26T04:12:48.666Z,0.00
2022-08-26T04:13:48.620Z,0.00
2022-08-26T04:14:48.604Z,0.00
2022-08-26T04:15:48.632Z,0.00
2022-08-26T04:16:48.568Z,0.00
2022-08-26T04:17:48.546Z,0.00
2022-08-26T04:18:48.535Z,0.00
2022-08-26T04:19:48.518Z,0.00
2022-08-26T04:20:48.517Z,0.00
2022-08-26T04:21:48.477Z,0.00
2022-08-26T04:22:48.456Z,0.00
2022-08-26T04:23:48.471Z,0.00
2022-08-26T04:24:48.435Z,0.00
2022-08-26T04:25:48.410Z,5.63
2022-08-26T04:26:48.390Z,5.63
2022-08-26T04:27:48.565Z,5.63
2022-08-26T04:28:48.350Z,5.63
2022-08-26T04:29:51.425Z,5.63
2022-08-26T04:30:48.317Z,5.63
2022-08-26T04:31:48.319Z,5.63
2022-08-26T04:32:48.283Z,5.63
2022-08-26T04:33:49.569Z,5.63
2022-08-26T04:34:48.244Z,11.25
2022-08-26T04:35:48.229Z,11.25
2022-08-26T04:36:48.214Z,11.25
2022-08-26T04:37:48.192Z,11.25
2022-08-26T04:38:48.188Z,11.25
2022-08-26T04:39:48.202Z,16.88
2022-08-26T04:40:48.139Z,16.88
2022-08-26T04:41:48.125Z,16.88
2022-08-26T04:42:48.121Z,22.50
2022-08-26T04:43:48.089Z,22.50
2022-08-26T04:44:48.076Z,22.50
2022-08-26T04:45:48.050Z,22.50
2022-08-26T04:46:48.038Z,28.13
2022-08-26T04:47:48.013Z,28.13
2022-08-26T04:48:47.999Z,28.13
2022-08-26T04:49:47.982Z,28.13
2022-08-26T04:50:49.634Z,28.13
2022-08-26T04:51:47.942Z,33.75
2022-08-26T04:52:48.000Z,33.75
2022-08-26T04:53:47.910Z,33.75
2022-08-26T04:54:47.890Z,33.75
2022-08-26T04:55:48.414Z,33.75
2022-08-26T04:56:47.860Z,33.75
2022-08-26T04:57:47.839Z,39.38
2022-08-26T04:58:47.820Z,39.38
2022-08-26T04:59:47.803Z,39.38
2022-08-26T05:00:47.789Z,45.00
2022-08-26T05:01:47.811Z,45.00
2022-08-26T05:02:47.763Z,45.00
2022-08-26T05:03:47.755Z,50.63
2022-08-26T05:04:47.719Z,50.63
2022-08-26T05:05:47.702Z,50.63
2022-08-26T05:06:47.704Z,50.63
2022-08-26T05:07:47.678Z,56.25
2022-08-26T05:08:47.656Z,56.25
2022-08-26T05:09:47.636Z,56.25
2022-08-26T05:10:47.616Z,56.25
2022-08-26T05:11:48.484Z,61.88
2022-08-26T05:12:47.582Z,61.88
2022-08-26T05:13:47.557Z,67.50
2022-08-26T05:14:47.542Z,73.13
2022-08-26T05:15:47.681Z,78.75
2022-08-26T05:16:47.822Z,78.75
2022-08-26T05:17:47.488Z,84.38
2022-08-26T05:18:47.473Z,90.00
2022-08-26T05:19:47.450Z,90.00
2022-08-26T05:20:47.438Z,95.63
2022-08-26T05:21:47.430Z,101.25
2022-08-26T05:22:47.404Z,106.88
2022-08-26T05:23:47.384Z,112.50
2022-08-26T05:24:47.369Z,112.50
2022-08-26T05:25:47.350Z,118.13
2022-08-26T05:26:47.342Z,118.13
2022-08-26T05:27:47.318Z,123.75
2022-08-26T05:28:47.314Z,123.75
2022-08-26T05:29:47.296Z,129.38
2022-08-26T05:30:47.307Z,135.00
2022-08-26T05:31:47.251Z,146.25
2022-08-26T05:32:47.237Z,140.63
2022-08-26T05:33:47.216Z,146.25
2022-08-26T05:34:47.205Z,151.88
2022-08-26T05:35:47.188Z,151.88
2022-08-26T05:36:47.171Z,157.50
2022-08-26T05:37:47.155Z,163.13
2022-08-26T05:38:47.137Z,163.13
2022-08-26T05:39:51.034Z,163.13
2022-08-26T05:40:47.106Z,163.13
2022-08-26T05:41:47.086Z,157.50
2022-08-26T05:42:47.072Z,157.50
2022-08-26T05:43:47.056Z,163.13
2022-08-26T05:44:53.957Z,168.75
2022-08-26T05:45:47.017Z,163.13
2022-08-26T05:46:47.087Z,163.13
2022-08-26T05:47:47.005Z,163.13
2022-08-26T05:48:46.978Z,163.13
2022-08-26T05:49:51.349Z,163.13
2022-08-26T05:50:46.951Z,163.13
2022-08-26T05:51:47.878Z,163.13
2022-08-26T05:52:46.909Z,168.75
2022-08-26T05:53:54.482Z,163.13
2022-08-26T05:54:46.875Z,168.75
2022-08-26T05:55:46.861Z,168.75
2022-08-26T05:56:46.849Z,168.75
2022-08-26T05:57:46.829Z,168.75
2022-08-26T05:58:46.818Z,168.75
2022-08-26T05:59:46.804Z,174.38
2022-08-26T06:00:46.791Z,168.75
2022-08-26T06:01:46.809Z,168.75
2022-08-26T06:02:48.394Z,168.75
2022-08-26T06:03:46.738Z,168.75
2022-08-26T06:04:46.718Z,168.75
2022-08-26T06:05:46.707Z,168.75
2022-08-26T06:06:46.690Z,168.75
2022-08-26T06:07:46.675Z,168.75
2022-08-26T06:08:46.665Z,168.75
2022-08-26T06:09:46.656Z,168.75
2022-08-26T06:10:46.629Z,168.75
2022-08-26T06:11:46.626Z,168.75
2022-08-26T06:12:46.607Z,168.75
2022-08-26T06:13:46.586Z,174.38
2022-08-26T06:14:46.578Z,174.38
2022-08-26T06:15:46.595Z,174.38
2022-08-26T06:16:46.543Z,180.00
2022-08-26T06:17:46.533Z,185.63
2022-08-26T06:18:46.510Z,185.63
2022-08-26T06:19:46.494Z,191.25
2022-08-26T06:20:53.715Z,191.25
2022-08-26T06:21:46.469Z,196.88
2022-08-26T06:22:46.456Z,202.50
2022-08-26T06:23:46.456Z,208.13
2022-08-26T06:24:46.426Z,219.38
2022-08-26T06:25:46.407Z,225.00
2022-08-26T06:26:50.325Z,230.63
2022-08-26T06:27:46.375Z,241.88
2022-08-26T06:28:46.373Z,247.50
2022-08-26T06:29:46.374Z,247.50
2022-08-26T06:30:46.414Z,247.50
2022-08-26T06:31:46.321Z,247.50
2022-08-26T06:32:46.308Z,241.88
2022-08-26T06:33:46.292Z,247.50
2022-08-26T06:34:46.300Z,247.50
2022-08-26T06:35:46.261Z,253.13
2022-08-26T06:36:46.251Z,253.13
2022-08-26T06:37:46.251Z,258.75
2022-08-26T06:38:46.236Z,253.13
2022-08-26T06:39:46.236Z,253.13
2022-08-26T06:40:46.194Z,258.75
2022-08-26T06:41:46.267Z,253.13
2022-08-26T06:42:46.166Z,253.13
2022-08-26T06:43:46.154Z,247.50
2022-08-26T06:44:46.161Z,241.88
2022-08-26T06:45:46.126Z,241.88
2022-08-26T06:46:46.238Z,241.88
2022-08-26T06:47:46.105Z,253.13
2022-08-26T06:48:46.143Z,247.50
2022-08-26T06:49:46.078Z,247.50
2022-08-26T06:50:46.057Z,247.50
2022-08-26T06:51:46.055Z,241.88
2022-08-26T06:52:46.033Z,236.25
2022-08-26T06:53:46.027Z,236.25
2022-08-26T06:54:46.037Z,230.63
2022-08-26T06:55:45.989Z,225.00
2022-08-26T06:56:45.994Z,225.00
2022-08-26T06:57:45.993Z,225.00
2022-08-26T06:58:45.947Z,225.00
2022-08-26T06:59:45.943Z,225.00
2022-08-26T07:00:47.245Z,225.00
2022-08-26T07:01:45.948Z,225.00
2022-08-26T07:02:46.173Z,230.63
2022-08-26T07:03:46.554Z,241.88
2022-08-26T07:04:47.904Z,241.88
2022-08-26T07:05:45.868Z,247.50
2022-08-26T07:06:45.846Z,247.50
2022-08-26T07:07:45.830Z,247.50
2022-08-26T07:08:45.813Z,253.13
2022-08-26T07:09:45.820Z,253.13
2022-08-26T07:10:45.792Z,258.75
2022-08-26T07:11:45.793Z,258.75
2022-08-26T07:12:47.062Z,275.63
2022-08-26T07:13:45.749Z,292.50
2022-08-26T07:14:47.535Z,298.13
2022-08-26T07:15:45.764Z,298.13
2022-08-26T07:16:45.712Z,298.13
2022-08-26T07:17:45.699Z,298.13
2022-08-26T07:18:45.833Z,298.13
2022-08-26T07:19:45.675Z,298.13
2022-08-26T07:20:45.660Z,298.13
2022-08-26T07:21:45.643Z,303.75
2022-08-26T07:22:45.636Z,303.75
2022-08-26T07:23:45.623Z,309.38
2022-08-26T07:24:45.619Z,315.00
2022-08-26T07:25:45.621Z,315.00
2022-08-26T07:26:45.586Z,315.00
2022-08-26T07:27:45.573Z,320.63
2022-08-26T07:28:45.575Z,320.63
2022-08-26T07:29:45.550Z,326.25
2022-08-26T07:30:45.589Z,331.88
2022-08-26T07:31:45.525Z,343.13
2022-08-26T07:32:45.510Z,337.50
2022-08-26T07:33:45.500Z,343.13
2022-08-26T07:34:45.496Z,343.13
2022-08-26T07:35:45.481Z,343.13
2022-08-26T07:36:45.467Z,343.13
2022-08-26T07:37:45.459Z,343.13
2022-08-26T07:38:45.447Z,343.13
2022-08-26T07:39:45.435Z,343.13
2022-08-26T07:40:45.430Z,343.13
2022-08-26T07:41:45.416Z,343.13
2022-08-26T07:42:45.402Z,343.13
2022-08-26T07:43:45.390Z,343.13
2022-08-26T07:44:45.396Z,343.13
2022-08-26T07:45:45.487Z,337.50
2022-08-26T07:46:45.355Z,331.88
2022-08-26T07:47:45.345Z,331.88
2022-08-26T07:48:46.273Z,326.25
2022-08-26T07:49:45.388Z,331.88
2022-08-26T07:50:49.268Z,337.50
2022-08-26T07:51:45.314Z,343.13
2022-08-26T07:52:45.337Z,354.38
2022-08-26T07:53:45.280Z,360.00
2022-08-26T07:54:45.281Z,360.00
2022-08-26T07:55:45.264Z,360.00
2022-08-26T07:56:45.254Z,354.38
2022-08-26T07:57:45.242Z,354.38
2022-08-26T07:58:49.006Z,348.75
2022-08-26T07:59:45.223Z,343.13
2022-08-26T08:00:45.217Z,343.13
2022-08-26T08:01:45.470Z,343.13
2022-08-26T08:02:45.193Z,348.75
2022-08-26T08:03:45.180Z,354.38
2022-08-26T08:04:45.207Z,360.00
2022-08-26T08:05:46.349Z,371.25
2022-08-26T08:06:45.148Z,388.13
2022-08-26T08:07:45.565Z,421.88
2022-08-26T08:08:45.132Z,438.75
2022-08-26T08:09:45.126Z,450.00
2022-08-26T08:10:45.106Z,461.25
2022-08-26T08:11:45.105Z,466.88
2022-08-26T08:12:45.094Z,478.13
2022-08-26T08:13:45.078Z,478.13
2022-08-26T08:14:45.085Z,489.38
2022-08-26T08:15:45.073Z,500.63
2022-08-26T08:16:46.845Z,517.50
2022-08-26T08:17:45.056Z,534.38
2022-08-26T08:18:45.054Z,545.63
2022-08-26T08:19:45.026Z,545.63
2022-08-26T08:20:59.426Z,534.38
2022-08-26T08:21:45.042Z,528.75
2022-08-26T08:22:44.999Z,523.13
2022-08-26T08:23:44.991Z,517.50
2022-08-26T08:24:44.978Z,517.50
2022-08-26T08:25:44.988Z,517.50
2022-08-26T08:26:44.975Z,511.88
2022-08-26T08:27:44.953Z,506.25
2022-08-26T08:28:44.948Z,511.88
2022-08-26T08:29:44.938Z,517.50
2022-08-26T08:30:44.984Z,500.63
2022-08-26T08:31:57.110Z,489.38
2022-08-26T08:32:44.912Z,466.88
2022-08-26T08:33:44.905Z,444.38
2022-08-26T08:34:44.897Z,438.75
2022-08-26T08:35:44.886Z,416.25
2022-08-26T08:36:44.875Z,399.38
2022-08-26T08:37:44.865Z,393.75
2022-08-26T08:38:44.856Z,388.13
2022-08-26T08:39:44.850Z,376.88
2022-08-26T08:40:44.842Z,382.50
2022-08-26T08:41:44.828Z,382.50
2022-08-26T08:42:44.858Z,388.13
2022-08-26T08:43:44.808Z,399.38
2022-08-26T08:44:44.805Z,410.63
2022-08-26T08:45:44.813Z,433.13
2022-08-26T08:46:44.804Z,461.25
2022-08-26T08:47:44.772Z,472.50
2022-08-26T08:48:44.769Z,483.75
2022-08-26T08:49:44.754Z,495.00
2022-08-26T08:50:44.746Z,511.88
2022-08-26T08:51:44.738Z,511.88
2022-08-26T08:52:44.728Z,523.13
2022-08-26T08:53:44.721Z,523.13
2022-08-26T08:54:44.710Z,523.13
2022-08-26T08:55:44.701Z,523.13
2022-08-26T08:56:44.694Z,517.50
2022-08-26T08:57:44.690Z,517.50
2022-08-26T08:58:44.676Z,523.13
2022-08-26T08:59:44.698Z,523.13
2022-08-26T09:00:44.661Z,540.00
2022-08-26T09:01:44.769Z,562.50
2022-08-26T09:02:44.692Z,613.13
2022-08-26T09:03:44.634Z,630.00
2022-08-26T09:04:44.630Z,641.25
2022-08-26T09:05:48.659Z,646.88
2022-08-26T09:06:44.635Z,663.75
2022-08-26T09:07:44.589Z,675.00
2022-08-26T09:08:44.582Z,697.50
2022-08-26T09:09:44.572Z,714.38
2022-08-26T09:10:44.562Z,725.63
2022-08-26T09:11:44.558Z,742.50
2022-08-26T09:12:44.545Z,759.38
2022-08-26T09:13:44.554Z,776.25
2022-08-26T09:14:44.526Z,810.00
2022-08-26T09:15:44.528Z,838.13
2022-08-26T09:16:44.534Z,888.75
2022-08-26T09:17:44.501Z,911.25
2022-08-26T09:18:46.111Z,922.50
2022-08-26T09:19:44.487Z,933.75
2022-08-26T09:20:45.519Z,945.00
2022-08-26T09:21:44.473Z,950.63
2022-08-26T09:22:44.470Z,950.63
2022-08-26T09:23:47.003Z,950.63
2022-08-26T09:24:48.501Z,939.38
2022-08-26T09:25:44.465Z,911.25
2022-08-26T09:26:44.433Z,877.50
2022-08-26T09:27:44.423Z,855.00
2022-08-26T09:28:44.420Z,821.25
2022-08-26T09:29:44.417Z,787.50
2022-08-26T09:30:44.490Z,770.63
2022-08-26T09:31:44.403Z,753.75
2022-08-26T09:32:44.383Z,736.88
2022-08-26T09:33:44.384Z,720.00
2022-08-26T09:34:44.369Z,708.75
2022-08-26T09:35:44.366Z,703.13
2022-08-26T09:36:44.372Z,697.50
2022-08-26T09:38:44.339Z,680.63
2022-08-26T09:39:44.335Z,675.00
2022-08-26T09:40:44.338Z,669.38
2022-08-26T09:41:44.319Z,658.13
2022-08-26T09:42:44.312Z,624.38
2022-08-26T09:43:44.300Z,613.13
2022-08-26T09:44:44.291Z,635.63
2022-08-26T09:45:50.658Z,646.88
2022-08-26T09:46:44.308Z,680.63
2022-08-26T09:47:44.267Z,691.88
2022-08-26T09:48:44.255Z,658.13
2022-08-26T09:49:44.251Z,641.25
2022-08-26T09:50:44.243Z,658.13
2022-08-26T09:51:44.240Z,663.75
2022-08-26T09:52:44.224Z,652.50
2022-08-26T09:53:44.214Z,675.00
2022-08-26T09:54:44.214Z,641.25
2022-08-26T09:55:44.203Z,663.75
2022-08-26T09:56:44.194Z,686.25
2022-08-26T09:57:44.184Z,725.63
2022-08-26T09:58:44.182Z,714.38
2022-08-26T09:59:44.168Z,663.75
2022-08-26T10:00:44.162Z,596.25
2022-08-26T10:01:44.828Z,523.13
2022-08-26T10:02:47.465Z,478.13
2022-08-26T10:03:44.172Z,444.38
2022-08-26T10:04:44.232Z,421.88
2022-08-26T10:05:44.123Z,405.00
2022-08-26T10:06:44.111Z,388.13
2022-08-26T10:07:44.106Z,376.88
2022-08-26T10:08:47.403Z,365.63
2022-08-26T10:09:44.089Z,354.38
2022-08-26T10:10:45.067Z,348.75
2022-08-26T10:11:44.070Z,343.13
2022-08-26T10:12:44.067Z,337.50
2022-08-26T10:13:44.052Z,337.50
2022-08-26T10:15:50.039Z,343.13
2022-08-26T10:16:44.089Z,343.13
2022-08-26T10:17:44.022Z,343.13
2022-08-26T10:18:44.023Z,337.50
2022-08-26T10:19:56.710Z,337.50
2022-08-26T10:20:44.010Z,331.88
2022-08-26T10:21:43.977Z,326.25
2022-08-26T10:22:43.977Z,315.00
2022-08-26T10:24:43.947Z,298.13
2022-08-26T10:25:43.932Z,292.50
2022-08-26T10:26:43.928Z,292.50
2022-08-26T10:27:51.124Z,281.25
2022-08-26T10:28:44.406Z,281.25
2022-08-26T10:29:43.895Z,281.25
2022-08-26T10:30:43.917Z,281.25
2022-08-26T10:31:43.928Z,281.25
2022-08-26T10:32:43.859Z,281.25
2022-08-26T10:33:43.851Z,281.25
2022-08-26T10:34:43.842Z,281.25
2022-08-26T10:35:43.831Z,281.25
2022-08-26T10:37:10.843Z,281.25
2022-08-26T10:37:43.804Z,286.88
2022-08-26T10:38:44.329Z,286.88
2022-08-26T10:39:43.785Z,292.50
2022-08-26T10:40:43.848Z,286.88
2022-08-26T10:41:43.789Z,286.88
2022-08-26T10:42:43.759Z,286.88
2022-08-26T10:43:43.740Z,286.88
2022-08-26T10:44:43.916Z,286.88
2022-08-26T10:45:43.810Z,286.88
2022-08-26T10:46:43.706Z,281.25
2022-08-26T10:47:43.693Z,275.63
2022-08-26T10:48:43.694Z,275.63
2022-08-26T10:49:43.686Z,275.63
2022-08-26T10:50:43.668Z,270.00
2022-08-26T10:51:45.638Z,270.00
2022-08-26T10:52:43.636Z,270.00
2022-08-26T10:53:44.448Z,270.00
2022-08-26T10:54:43.610Z,270.00
2022-08-26T10:55:43.600Z,275.63
2022-08-26T10:56:43.588Z,275.63
2022-08-26T10:57:43.590Z,275.63
2022-08-26T10:58:44.528Z,275.63
2022-08-26T10:59:43.638Z,275.63
2022-08-26T11:00:43.958Z,270.00
2022-08-26T11:01:43.631Z,270.00
2022-08-26T11:02:46.955Z,270.00
2022-08-26T11:03:43.687Z,270.00
2022-08-26T11:04:48.159Z,270.00
2022-08-26T11:05:43.558Z,270.00
2022-08-26T11:06:43.473Z,275.63
2022-08-26T11:07:43.460Z,275.63
2022-08-26T11:08:43.465Z,275.63
2022-08-26T11:09:43.433Z,275.63
2022-08-26T11:10:43.430Z,281.25
2022-08-26T11:11:43.413Z,281.25
2022-08-26T11:12:43.430Z,286.88
2022-08-26T11:13:43.410Z,286.88
2022-08-26T11:14:53.276Z,292.50
2022-08-26T11:15:43.368Z,292.50
2022-08-26T11:16:43.822Z,292.50
2022-08-26T11:17:43.343Z,298.13
2022-08-26T11:18:43.334Z,303.75
2022-08-26T11:20:00.247Z,303.75
2022-08-26T11:20:43.307Z,309.38
2022-08-26T11:21:43.294Z,315.00
2022-08-26T11:22:47.585Z,315.00
2022-08-26T11:23:43.269Z,320.63
2022-08-26T11:24:43.281Z,326.25
2022-08-26T11:25:43.249Z,326.25
2022-08-26T11:26:56.085Z,331.88
2022-08-26T11:27:43.263Z,337.50
2022-08-26T11:28:43.972Z,343.13
2022-08-26T11:29:43.237Z,354.38
2022-08-26T11:30:43.204Z,360.00
2022-08-26T11:31:43.201Z,365.63
2022-08-26T11:32:43.191Z,371.25
2022-08-26T11:33:43.160Z,382.50
2022-08-26T11:34:43.136Z,388.13
2022-08-26T11:35:43.130Z,393.75
2022-08-26T11:36:43.120Z,399.38
2022-08-26T11:37:43.112Z,410.63
2022-08-26T11:38:43.099Z,416.25
2022-08-26T11:39:46.260Z,416.25
2022-08-26T11:40:43.122Z,421.88
2022-08-26T11:41:43.064Z,427.50
2022-08-26T11:42:43.063Z,433.13
2022-08-26T11:43:43.043Z,444.38
2022-08-26T11:44:48.690Z,444.38
2022-08-26T11:45:43.033Z,450.00
2022-08-26T11:46:43.003Z,455.63
2022-08-26T11:47:42.996Z,461.25
2022-08-26T11:48:43.016Z,472.50
2022-08-26T11:49:42.971Z,478.13
2022-08-26T11:50:42.956Z,483.75
2022-08-26T11:51:46.412Z,489.38
2022-08-26T11:52:42.953Z,495.00
2022-08-26T11:53:42.926Z,506.25
2022-08-26T11:54:42.915Z,511.88
2022-08-26T11:55:42.937Z,511.88
2022-08-26T11:56:42.899Z,517.50
2022-08-26T11:57:42.885Z,523.13
2022-08-26T11:58:42.867Z,534.38
2022-08-26T11:59:42.859Z,540.00
2022-08-26T12:00:45.623Z,540.00
2022-08-26T12:01:42.844Z,551.25
2022-08-26T12:02:42.841Z,556.88
2022-08-26T12:03:42.939Z,562.50
2022-08-26T12:04:42.848Z,573.75
2022-08-26T12:05:42.807Z,579.38
2022-08-26T12:06:45.253Z,590.63
2022-08-26T12:07:42.803Z,601.88
2022-08-26T12:08:42.762Z,613.13
2022-08-26T12:09:42.772Z,618.75
2022-08-26T12:10:42.739Z,635.63
2022-08-26T12:11:42.783Z,652.50
2022-08-26T12:12:42.719Z,658.13
2022-08-26T12:13:42.737Z,669.38
2022-08-26T12:14:42.700Z,680.63
2022-08-26T12:15:42.730Z,691.88
2022-08-26T12:16:42.754Z,697.50
2022-08-26T12:17:42.673Z,708.75
2022-08-26T12:18:44.807Z,720.00
2022-08-26T12:19:42.646Z,731.25
2022-08-26T12:20:42.642Z,736.88
2022-08-26T12:21:42.653Z,748.13
2022-08-26T12:22:43.475Z,753.75
2022-08-26T12:23:43.353Z,759.38
2022-08-26T12:24:42.620Z,759.38
2022-08-26T12:25:42.635Z,765.00
2022-08-26T12:26:42.578Z,765.00
2022-08-26T12:27:42.565Z,765.00
2022-08-26T12:28:42.558Z,765.00
2022-08-26T12:29:42.547Z,765.00
2022-08-26T12:30:42.537Z,759.38
2022-08-26T12:31:42.572Z,759.38
2022-08-26T12:32:57.397Z,765.00
2022-08-26T12:33:42.514Z,753.75
2022-08-26T12:34:42.504Z,753.75
2022-08-26T12:35:42.493Z,753.75
2022-08-26T12:36:42.483Z,753.75
2022-08-26T12:37:42.475Z,748.13
2022-08-26T12:38:42.461Z,748.13
2022-08-26T12:39:42.461Z,748.13
2022-08-26T12:40:42.443Z,748.13
2022-08-26T12:41:42.435Z,753.75
2022-08-26T12:42:42.541Z,765.00
2022-08-26T12:43:42.425Z,759.38
2022-08-26T12:44:42.411Z,765.00
2022-08-26T12:45:42.450Z,781.88
2022-08-26T12:46:43.939Z,770.63
2022-08-26T12:47:43.942Z,770.63
2022-08-26T12:48:42.372Z,781.88
2022-08-26T12:49:42.389Z,793.13
2022-08-26T12:50:42.364Z,742.50